createdAt,value
2016-09-28T03:01:08.684Z,1021.13
2016-09-28T03:01:34.302Z,1021.14
2016-09-28T03:01:59.862Z,1021.16
2016-09-28T03:02:25.411Z,1021.12
2016-09-28T03:02:50.978Z,1021.15
2016-09-28T03:03:16.548Z,1021.14
2016-09-28T03:03:42.161Z,1021.09
2016-09-28T03:04:07.761Z,1021.17
2016-09-28T03:04:33.330Z,1021.16
2016-09-28T03:04:58.976Z,1021.12
2016-09-28T03:05:24.537Z,1021.12
2016-09-28T03:05:50.101Z,1021.06
2016-09-28T03:06:15.666Z,1021.09
2016-09-28T03:06:41.274Z,1021.11
2016-09-28T03:07:06.832Z,1021.11
2016-09-28T03:07:32.401Z,1021.08
2016-09-28T03:07:58.003Z,1021.06
2016-09-28T03:08:23.582Z,1021.07
2016-09-28T03:08:49.160Z,1021.13
2016-09-28T03:09:14.779Z,1021.1
2016-09-28T03:09:40.347Z,1021.11
2016-09-28T03:10:05.935Z,1021.08
2016-09-28T03:10:31.531Z,1021.09
2016-09-28T03:10:57.095Z,1021.1
2016-09-28T03:11:22.678Z,1021.11
2016-09-28T03:11:48.326Z,1021.11
2016-09-28T03:12:13.889Z,1021.15
2016-09-28T03:12:39.445Z,1021.17
2016-09-28T03:13:05.086Z,1021.13
2016-09-28T03:13:30.739Z,1021.19
2016-09-28T03:13:56.286Z,1021.16
2016-09-28T03:14:21.894Z,1021.15
2016-09-28T03:14:47.505Z,1021.17
2016-09-28T03:15:13.054Z,1021.17
2016-09-28T03:15:38.618Z,1021.12
2016-09-28T03:16:04.165Z,1021.16
2016-09-28T03:16:29.712Z,1021.12
2016-09-28T03:16:55.289Z,1021.09
2016-09-28T03:17:20.892Z,1021.11
2016-09-28T03:17:46.469Z,1021.07
2016-09-28T03:18:12.093Z,1021.08
2016-09-28T03:18:37.634Z,1021.09
2016-09-28T03:19:03.219Z,1021.09
2016-09-28T03:19:28.789Z,1021.05
2016-09-28T03:19:54.373Z,1021.04
2016-09-28T03:20:19.913Z,1021.03
2016-09-28T03:20:45.506Z,1021.03
2016-09-28T03:21:11.049Z,1021.04
2016-09-28T03:21:36.593Z,1021.04
2016-09-28T03:22:02.137Z,1021.06
2016-09-28T03:22:27.687Z,1021.02
2016-09-28T03:22:53.274Z,1021.03
2016-09-28T03:23:18.811Z,1021.02
2016-09-28T03:23:44.398Z,1021.01
2016-09-28T03:24:09.952Z,1021.07
2016-09-28T03:24:35.620Z,1021.05
2016-09-28T03:25:01.191Z,1021.05
2016-09-28T03:25:26.833Z,1021.09
2016-09-28T03:25:52.497Z,1021.12
2016-09-28T03:26:18.078Z,1021.09
2016-09-28T03:26:43.657Z,1021.14
2016-09-28T03:27:09.212Z,1021.15
2016-09-28T03:27:34.849Z,1021.16
2016-09-28T03:28:00.401Z,1021.17
2016-09-28T03:28:26.057Z,1021.2
2016-09-28T03:28:51.617Z,1021.16
2016-09-28T03:29:17.181Z,1021.2
2016-09-28T03:29:42.746Z,1021.22
2016-09-28T03:30:08.325Z,1021.2
2016-09-28T03:30:33.893Z,1021.24
2016-09-28T03:30:59.525Z,1021.22
2016-09-28T03:31:25.074Z,1021.26
2016-09-28T03:31:50.640Z,1021.26
2016-09-28T03:32:16.188Z,1021.25
2016-09-28T03:32:41.737Z,1021.26
2016-09-28T03:33:07.354Z,1021.24
2016-09-28T03:33:32.906Z,1021.24
2016-09-28T03:33:58.474Z,1021.29
2016-09-28T03:34:24.033Z,1021.3
2016-09-28T03:34:49.633Z,1021.33
2016-09-28T03:35:15.447Z,1021.31
2016-09-28T03:35:41.017Z,1021.29
2016-09-28T03:36:06.582Z,1021.35
2016-09-28T03:36:32.118Z,1021.31
2016-09-28T03:36:57.681Z,1021.34
2016-09-28T03:37:23.268Z,1021.28
2016-09-28T03:37:48.808Z,1021.3
2016-09-28T03:38:14.346Z,1021.24
2016-09-28T03:38:39.903Z,1021.22
2016-09-28T03:39:05.459Z,1021.23
2016-09-28T03:39:31.007Z,1021.27
2016-09-28T03:39:56.561Z,1021.24
2016-09-28T03:40:22.097Z,1021.29
2016-09-28T03:40:47.637Z,1021.33
2016-09-28T03:41:13.184Z,1021.3
2016-09-28T03:41:38.756Z,1021.32
2016-09-28T03:42:04.302Z,1021.33
2016-09-28T03:42:29.906Z,1021.36
2016-09-28T03:42:56.413Z,1021.37
2016-09-28T03:43:22.006Z,1021.35
2016-09-28T03:43:47.565Z,1021.32
2016-09-28T03:44:13.139Z,1021.29
2016-09-28T03:44:38.713Z,1021.33
2016-09-28T03:45:04.317Z,1021.33
2016-09-28T03:45:29.891Z,1021.3
2016-09-28T03:45:55.445Z,1021.29
2016-09-28T03:46:21.102Z,1021.26
2016-09-28T03:46:46.723Z,1021.29
2016-09-28T04:05:38.492Z,1021.54
2016-09-28T04:06:04.075Z,1021.5
2016-09-28T04:06:29.630Z,1021.47
2016-09-28T04:06:55.289Z,1021.47
2016-09-28T04:07:20.828Z,1021.52
2016-09-28T04:07:46.391Z,1021.47
2016-09-28T04:08:11.956Z,1021.45
2016-09-28T04:08:37.515Z,1021.45
2016-09-28T04:09:03.073Z,1021.41
2016-09-28T04:09:28.649Z,1021.38
2016-09-28T04:09:54.241Z,1021.4
2016-09-28T04:10:19.796Z,1021.37
2016-09-28T04:10:45.375Z,1021.36
2016-09-28T04:11:10.931Z,1021.35
2016-09-28T04:11:36.497Z,1021.31
2016-09-28T04:12:02.068Z,1021.33
2016-09-28T04:12:27.638Z,1021.28
2016-09-28T04:12:53.211Z,1021.3
2016-09-28T04:13:18.768Z,1021.27
2016-09-28T04:13:44.339Z,1021.23
2016-09-28T04:14:09.916Z,1021.22
2016-09-28T04:14:35.479Z,1021.21
2016-09-28T04:15:01.052Z,1021.23
2016-09-28T04:15:26.620Z,1021.26
2016-09-28T04:15:52.264Z,1021.29
2016-09-28T04:16:17.822Z,1021.24
2016-09-28T04:16:43.442Z,1021.28
2016-09-28T04:17:09.042Z,1021.27
2016-09-28T04:17:34.604Z,1021.24
2016-09-28T04:18:00.172Z,1021.3
2016-09-28T04:18:25.863Z,1021.32
2016-09-28T04:18:51.311Z,1021.22
2016-09-28T04:19:16.876Z,1021.22
2016-09-28T04:19:42.430Z,1021.15
2016-09-28T04:20:08.021Z,1021.17
2016-09-28T04:20:33.588Z,1021.13
2016-09-28T04:20:59.166Z,1021.19
2016-09-28T04:21:24.726Z,1021.16
2016-09-28T04:21:50.276Z,1021.15
2016-09-28T04:22:15.823Z,1021.15
2016-09-28T04:22:41.404Z,1021.15
2016-09-28T04:23:07.002Z,1021.2
2016-09-28T04:23:32.567Z,1021.16
2016-09-28T04:23:58.130Z,1021.18
2016-09-28T04:24:23.781Z,1021.2
2016-09-28T04:24:49.364Z,1021.17
2016-09-28T04:25:14.921Z,1021.17
2016-09-28T04:25:40.475Z,1021.2
2016-09-28T04:26:06.034Z,1021.15
2016-09-28T04:26:31.595Z,1021.16
2016-09-28T04:26:57.171Z,1021.17
2016-09-28T04:27:22.743Z,1021.18
2016-09-28T04:27:48.318Z,1021.19
2016-09-28T04:28:13.897Z,1021.15
2016-09-28T04:28:39.503Z,1021.21
2016-09-28T04:29:05.081Z,1021.18
2016-09-28T04:29:30.653Z,1021.19
2016-09-28T04:29:56.241Z,1021.21
2016-09-28T04:30:21.920Z,1021.18
2016-09-28T04:30:47.511Z,1021.14
2016-09-28T04:31:13.083Z,1021.13
2016-09-28T04:32:31.930Z,1021.09
2016-09-28T04:32:57.509Z,1021.08
2016-09-28T04:33:23.066Z,1021.07
2016-09-28T04:33:48.631Z,1021.06
2016-09-28T04:34:14.206Z,1021.05
2016-09-28T04:34:39.771Z,1021.01
2016-09-28T04:35:05.315Z,1021.04
2016-09-28T04:36:03.593Z,1021.02
2016-09-28T04:36:29.159Z,1021.04
2016-09-28T04:36:54.733Z,1021.04
2016-09-28T04:37:20.384Z,1021.05
2016-09-28T04:37:45.918Z,1021.06
2016-09-28T04:39:47.202Z,1021.17
2016-09-28T04:40:12.765Z,1021.06
2016-09-28T04:40:38.326Z,1021.08
2016-09-28T04:41:03.909Z,1021.13
2016-09-28T04:41:29.486Z,1021.06
2016-09-28T04:41:55.132Z,1021.03
2016-09-28T04:42:58.354Z,1021.06
2016-09-28T04:43:23.922Z,1021.03
2016-09-28T04:43:49.474Z,1021.04
2016-09-28T04:44:15.022Z,1021.08
2016-09-28T04:44:40.753Z,1021.06
2016-09-28T04:45:06.334Z,1021.06
2016-09-28T04:45:31.884Z,1021.08
2016-09-28T04:45:57.434Z,1021.05
2016-09-28T04:46:23.000Z,1021.09
2016-09-28T04:46:48.566Z,1021.04
2016-09-28T04:47:14.132Z,1021.01
2016-09-28T04:47:39.696Z,1021.06
2016-09-28T04:48:05.266Z,1021.03
2016-09-28T04:48:30.811Z,1021.06
2016-09-28T04:48:56.391Z,1021.09
2016-09-28T04:49:21.976Z,1021.09
2016-09-28T04:49:47.571Z,1021.07
2016-09-28T04:50:13.139Z,1021.18
2016-09-28T04:50:38.690Z,1021.18
2016-09-28T04:51:04.274Z,1021.19
2016-09-28T04:51:29.863Z,1021.19
2016-09-28T04:52:33.071Z,1021.2
2016-09-28T04:52:58.637Z,1021.13
2016-09-28T04:53:24.184Z,1021.1
2016-09-28T04:53:49.761Z,1021.09
2016-09-28T04:54:15.313Z,1021.06
2016-09-28T04:54:40.953Z,1021.06
2016-09-28T04:55:06.585Z,1021.05
2016-09-28T04:55:32.145Z,1021.05
2016-09-28T04:55:58.343Z,1020.99
2016-09-28T04:56:23.918Z,1020.98
2016-09-28T04:56:49.522Z,1020.99
2016-09-28T04:57:15.082Z,1020.97
2016-09-28T04:57:40.682Z,1020.94
2016-09-28T04:58:06.237Z,1020.97
2016-09-28T04:58:31.851Z,1020.99
2016-09-28T04:58:57.391Z,1020.96
2016-09-28T04:59:22.947Z,1021.03
2016-09-28T04:59:48.497Z,1021.01
2016-09-28T05:00:14.053Z,1020.97
2016-09-28T05:00:39.697Z,1021.01
2016-09-28T05:01:05.269Z,1020.93
2016-09-28T05:01:30.826Z,1020.89
2016-09-28T05:01:56.482Z,1020.88
2016-09-28T05:02:22.043Z,1020.83
2016-09-28T05:02:47.609Z,1020.84
2016-09-28T05:03:13.183Z,1020.85
2016-09-28T05:03:38.789Z,1020.81
2016-09-28T05:04:04.360Z,1020.75
2016-09-28T05:04:29.923Z,1020.73
2016-09-28T05:04:55.470Z,1020.77
2016-09-28T05:05:21.091Z,1020.76
2016-09-28T05:05:46.653Z,1020.79
2016-09-28T05:06:12.221Z,1020.73
2016-09-28T05:06:37.855Z,1020.81
2016-09-28T05:07:03.493Z,1020.74
2016-09-28T05:07:29.053Z,1020.7
2016-09-28T05:07:54.644Z,1020.75
2016-09-28T05:08:20.290Z,1020.79
2016-09-28T05:08:45.888Z,1020.75
2016-09-28T05:09:11.462Z,1020.76
2016-09-28T05:09:37.083Z,1020.78
2016-09-28T05:10:02.684Z,1020.78
2016-09-28T05:10:28.255Z,1020.82
2016-09-28T05:10:53.845Z,1020.8
2016-09-28T05:11:19.477Z,1020.87
2016-09-28T05:11:45.091Z,1020.87
2016-09-28T05:12:10.729Z,1020.9
2016-09-28T05:12:36.337Z,1020.85
2016-09-28T05:13:01.899Z,1020.9
2016-09-28T05:13:27.455Z,1020.98
2016-09-28T05:13:53.045Z,1020.94
2016-09-28T05:14:18.715Z,1020.93
2016-09-28T05:14:44.301Z,1020.96
2016-09-28T05:15:09.861Z,1020.99
2016-09-28T05:15:35.497Z,1021.01
2016-09-28T05:16:01.051Z,1021.03
2016-09-28T05:16:26.606Z,1021
2016-09-28T05:16:52.313Z,1021.03
2016-09-28T05:17:17.860Z,1021.07
2016-09-28T05:17:43.424Z,1021.12
2016-09-28T05:18:09.070Z,1021.08
2016-09-28T05:18:34.641Z,1021.07
2016-09-28T05:19:00.234Z,1021.1
2016-09-28T05:19:25.785Z,1021.22
2016-09-28T05:21:06.635Z,1021.1
2016-09-28T05:21:32.196Z,1021.18
2016-09-28T05:21:57.859Z,1021.12
2016-09-28T05:22:23.353Z,1021.12
2016-09-28T05:22:48.923Z,1021.07
2016-09-28T05:23:14.469Z,1020.98
2016-09-28T05:23:40.096Z,1020.94
2016-09-28T05:24:05.632Z,1020.92
2016-09-28T05:24:31.185Z,1020.9
2016-09-28T05:24:56.737Z,1020.79
2016-09-28T05:25:22.354Z,1020.83
2016-09-28T05:26:36.089Z,1020.82
2016-09-28T05:27:01.650Z,1020.78
2016-09-28T05:27:27.207Z,1020.84
2016-09-28T05:27:52.772Z,1020.77
2016-09-28T05:28:18.372Z,1020.8
2016-09-28T05:28:43.989Z,1020.8
2016-09-28T05:29:09.549Z,1020.76
2016-09-28T05:29:35.145Z,1020.84
2016-09-28T05:30:00.817Z,1020.73
2016-09-28T05:30:26.362Z,1020.79
2016-09-28T05:30:51.913Z,1020.8
2016-09-28T05:31:17.489Z,1020.8
2016-09-28T05:32:25.809Z,1020.72
2016-09-28T05:32:51.356Z,1020.79
2016-09-28T05:33:16.967Z,1020.73
2016-09-28T05:33:42.527Z,1020.73
2016-09-28T05:34:08.114Z,1020.73
2016-09-28T05:34:33.722Z,1020.74
2016-09-28T05:34:59.292Z,1020.73
2016-09-28T05:35:24.857Z,1020.7
2016-09-28T05:35:50.405Z,1020.69
2016-09-28T05:36:15.974Z,1020.71
2016-09-28T05:36:41.532Z,1020.71
2016-09-28T05:37:07.112Z,1020.71
2016-09-28T05:37:32.661Z,1020.7
2016-09-28T05:37:58.223Z,1020.75
2016-09-28T05:38:23.812Z,1020.74
2016-09-28T05:38:49.373Z,1020.74
2016-09-28T05:39:14.934Z,1020.72
2016-09-28T05:39:40.506Z,1020.78
2016-09-28T05:40:06.062Z,1020.79
2016-09-28T05:40:31.641Z,1020.75
2016-09-28T05:40:57.220Z,1020.8
2016-09-28T05:41:22.794Z,1020.72
2016-09-28T05:41:48.453Z,1020.8
2016-09-28T05:42:14.020Z,1020.8
2016-09-28T05:42:39.572Z,1020.73
2016-09-28T05:43:05.196Z,1020.76
2016-09-28T05:43:30.751Z,1020.73
2016-09-28T05:43:56.319Z,1020.77
2016-09-28T05:44:21.929Z,1020.74
2016-09-28T05:44:47.485Z,1020.73
2016-09-28T05:45:13.054Z,1020.8
2016-09-28T05:45:38.624Z,1020.82
2016-09-28T05:46:04.172Z,1020.8
2016-09-28T05:46:29.750Z,1020.82
2016-09-28T05:46:55.383Z,1020.77
2016-09-28T05:47:20.945Z,1020.77
2016-09-28T05:47:46.530Z,1020.76
2016-09-28T05:48:12.163Z,1020.88
2016-09-28T05:48:37.731Z,1020.8
2016-09-28T05:49:03.292Z,1020.81
2016-09-28T05:49:28.863Z,1020.8
2016-09-28T05:49:54.452Z,1020.73
2016-09-28T05:50:20.013Z,1020.73
2016-09-28T05:50:45.563Z,1020.74
2016-09-28T05:51:11.138Z,1020.75
2016-09-28T05:51:36.714Z,1020.74
2016-09-28T05:52:02.317Z,1020.72
2016-09-28T05:52:27.992Z,1020.75
2016-09-28T05:52:53.578Z,1020.72
2016-09-28T05:53:19.154Z,1020.72
2016-09-28T05:53:44.717Z,1020.68
2016-09-28T05:54:10.288Z,1020.73
2016-09-28T05:54:35.868Z,1020.75
2016-09-28T05:55:01.496Z,1020.72
2016-09-28T05:55:27.049Z,1020.71
2016-09-28T05:55:52.621Z,1020.73
2016-09-28T05:56:18.209Z,1020.74
2016-09-28T05:56:43.791Z,1020.73
2016-09-28T05:57:09.359Z,1020.66
2016-09-28T05:57:34.919Z,1020.69
2016-09-28T05:58:00.479Z,1020.72
2016-09-28T05:58:26.169Z,1020.69
2016-09-28T05:58:51.733Z,1020.73
2016-09-28T05:59:17.292Z,1020.76
2016-09-28T05:59:42.848Z,1020.67
2016-09-28T06:00:08.380Z,1020.67
2016-09-28T06:00:33.916Z,1020.67
2016-09-28T06:01:42.236Z,1020.67
2016-09-28T06:02:07.793Z,1020.67
2016-09-28T06:02:33.528Z,1020.69
2016-09-28T06:02:59.279Z,1020.65
2016-09-28T06:03:24.854Z,1020.63
2016-09-28T06:03:50.461Z,1020.67
2016-09-28T06:04:16.017Z,1020.7
2016-09-28T06:04:41.576Z,1020.64
2016-09-28T06:05:07.139Z,1020.66
2016-09-28T06:05:32.700Z,1020.64
2016-09-28T06:05:58.273Z,1020.64
2016-09-28T06:06:23.835Z,1020.64
2016-09-28T06:06:49.377Z,1020.65
2016-09-28T06:07:15.035Z,1020.59
2016-09-28T06:07:40.599Z,1020.57
2016-09-28T06:08:06.171Z,1020.59
2016-09-28T06:08:31.747Z,1020.6
2016-09-28T06:08:57.409Z,1020.58
2016-09-28T06:09:22.992Z,1020.61
2016-09-28T06:09:48.575Z,1020.62
2016-09-28T06:10:14.209Z,1020.6
2016-09-28T06:10:39.788Z,1020.64
2016-09-28T06:11:05.363Z,1020.62
2016-09-28T06:11:30.956Z,1020.59
2016-09-28T06:11:56.520Z,1020.61
2016-09-28T06:12:22.075Z,1020.55
2016-09-28T06:12:47.637Z,1020.57
2016-09-28T06:13:13.204Z,1020.54
2016-09-28T06:13:38.764Z,1020.55
2016-09-28T06:14:04.324Z,1020.52
2016-09-28T06:14:29.888Z,1020.54
2016-09-28T06:14:55.455Z,1020.55
2016-09-28T06:15:21.155Z,1020.5
2016-09-28T06:15:46.708Z,1020.42
2016-09-28T06:16:12.283Z,1020.44
2016-09-28T06:16:37.842Z,1020.44
2016-09-28T06:17:03.414Z,1020.41
2016-09-28T06:17:29.137Z,1020.37
2016-09-28T06:17:54.688Z,1020.39
2016-09-28T06:18:20.233Z,1020.34
2016-09-28T06:18:45.767Z,1020.38
2016-09-28T06:19:11.313Z,1020.33
2016-09-28T06:19:36.867Z,1020.37
2016-09-28T06:20:02.403Z,1020.39
2016-09-28T06:20:27.956Z,1020.38
2016-09-28T06:20:53.499Z,1020.28
2016-09-28T06:21:19.086Z,1020.3
2016-09-28T06:21:44.649Z,1020.34
2016-09-28T06:22:10.190Z,1020.3
2016-09-28T06:22:35.745Z,1020.32
2016-09-28T06:23:01.283Z,1020.32
2016-09-28T06:23:26.832Z,1020.28
2016-09-28T06:23:52.446Z,1020.29
2016-09-28T06:24:18.016Z,1020.28
2016-09-28T06:24:43.580Z,1020.31
2016-09-28T06:25:09.235Z,1020.32
2016-09-28T06:28:09.464Z,1020.49
2016-09-28T06:28:35.015Z,1020.54
2016-09-28T06:29:00.618Z,1020.6
2016-09-28T06:29:26.187Z,1020.57
2016-09-28T06:30:39.570Z,1020.64
2016-09-28T06:31:05.176Z,1020.6
2016-09-28T06:31:30.728Z,1020.6
2016-09-28T06:31:56.278Z,1020.61
2016-09-28T06:32:21.844Z,1020.59
2016-09-28T06:32:47.413Z,1020.57
2016-09-28T06:33:13.011Z,1020.58
2016-09-28T06:33:38.563Z,1020.56
2016-09-28T06:35:34.745Z,1020.5
2016-09-28T06:36:00.331Z,1020.46
2016-09-28T06:36:25.885Z,1020.47
2016-09-28T06:36:51.507Z,1020.46
2016-09-28T06:37:17.071Z,1020.42
2016-09-28T06:37:42.640Z,1020.37
2016-09-28T06:38:08.308Z,1020.4
2016-09-28T06:38:33.865Z,1020.35
2016-09-28T06:38:59.442Z,1020.38
2016-09-28T06:39:24.974Z,1020.33
2016-09-28T06:39:50.554Z,1020.41
2016-09-28T06:40:16.118Z,1020.39
2016-09-28T06:40:41.652Z,1020.41
2016-09-28T06:41:07.225Z,1020.39
2016-09-28T06:41:32.781Z,1020.42
2016-09-28T06:41:58.456Z,1020.4
2016-09-28T06:42:24.114Z,1020.43
2016-09-28T06:42:49.688Z,1020.46
2016-09-28T06:43:15.248Z,1020.41
2016-09-28T06:43:40.815Z,1020.42
2016-09-28T06:44:06.384Z,1020.42
2016-09-28T06:44:31.923Z,1020.4
2016-09-28T06:44:57.481Z,1020.43
2016-09-28T06:45:23.080Z,1020.42
2016-09-28T06:45:48.648Z,1020.39
2016-09-28T06:46:14.223Z,1020.37
2016-09-28T06:46:39.825Z,1020.46
2016-09-28T06:47:37.942Z,1020.38
2016-09-28T06:48:03.502Z,1020.36
2016-09-28T06:48:29.075Z,1020.37
2016-09-28T06:48:54.661Z,1020.42
2016-09-28T06:49:20.322Z,1020.4
2016-09-28T06:49:45.896Z,1020.47
2016-09-28T06:50:11.461Z,1020.52
2016-09-28T06:50:37.014Z,1020.51
2016-09-28T06:51:02.590Z,1020.49
2016-09-28T06:51:28.168Z,1020.5
2016-09-28T06:51:53.736Z,1020.49
2016-09-28T06:52:19.304Z,1020.51
2016-09-28T06:52:44.878Z,1020.54
2016-09-28T06:53:10.460Z,1020.51
2016-09-28T06:53:35.999Z,1020.58
2016-09-28T06:54:01.552Z,1020.59
2016-09-28T06:54:27.080Z,1020.56
2016-09-28T06:54:52.639Z,1020.55
2016-09-28T06:55:18.207Z,1020.6
2016-09-28T06:55:43.779Z,1020.54
2016-09-28T06:56:09.351Z,1020.55
2016-09-28T06:56:35.020Z,1020.59
2016-09-28T06:57:00.608Z,1020.58
2016-09-28T06:57:26.187Z,1020.59
2016-09-28T06:57:51.724Z,1020.59
2016-09-28T06:58:17.301Z,1020.62
2016-09-28T06:58:42.870Z,1020.57
2016-09-28T06:59:08.437Z,1020.54
2016-09-28T06:59:34.108Z,1020.53
2016-09-28T06:59:59.575Z,1020.54
2016-09-28T07:00:25.145Z,1020.53
2016-09-28T07:00:50.746Z,1020.52
2016-09-28T07:01:16.312Z,1020.56
2016-09-28T07:01:41.870Z,1020.54
2016-09-28T07:02:07.422Z,1020.47
2016-09-28T07:02:32.979Z,1020.5
2016-09-28T07:02:58.590Z,1020.52
2016-09-28T07:03:24.170Z,1020.52
2016-09-28T07:06:24.329Z,1020.47
2016-09-28T07:06:58.256Z,1020.47
2016-09-28T07:07:23.836Z,1020.45
2016-09-28T07:07:49.405Z,1020.43
2016-09-28T07:08:14.964Z,1020.45
2016-09-28T07:08:40.536Z,1020.42
2016-09-28T07:09:06.140Z,1020.42
2016-09-28T07:09:31.708Z,1020.42
2016-09-28T07:09:57.291Z,1020.46
2016-09-28T07:10:22.874Z,1020.46
2016-09-28T07:10:48.432Z,1020.55
2016-09-28T07:11:13.993Z,1020.51
2016-09-28T07:11:39.597Z,1020.54
2016-09-28T07:12:05.169Z,1020.52
2016-09-28T07:12:30.729Z,1020.5
2016-09-28T07:12:56.287Z,1020.52
2016-09-28T07:13:21.844Z,1020.56
2016-09-28T07:13:47.395Z,1020.55
2016-09-28T07:14:12.980Z,1020.57
2016-09-28T07:14:38.533Z,1020.59
2016-09-28T07:15:04.109Z,1020.61
2016-09-28T07:15:29.679Z,1020.58
2016-09-28T07:15:55.234Z,1020.58
2016-09-28T07:16:20.803Z,1020.61
2016-09-28T07:16:46.376Z,1020.63
2016-09-28T07:17:11.930Z,1020.66
2016-09-28T07:17:37.511Z,1020.63
2016-09-28T07:18:03.080Z,1020.61
2016-09-28T07:18:28.654Z,1020.66
2016-09-28T07:18:54.200Z,1020.72
2016-09-28T07:19:19.754Z,1020.76
2016-09-28T07:19:45.307Z,1020.72
2016-09-28T07:20:10.895Z,1020.74
2016-09-28T07:20:36.437Z,1020.74
2016-09-28T07:21:01.996Z,1020.7
2016-09-28T07:21:27.573Z,1020.71
2016-09-28T07:21:53.139Z,1020.7
2016-09-28T07:22:18.709Z,1020.71
2016-09-28T07:22:44.276Z,1020.68
2016-09-28T07:23:09.851Z,1020.7
2016-09-28T07:23:35.418Z,1020.71
2016-09-28T07:24:00.987Z,1020.71
2016-09-28T07:24:26.582Z,1020.74
2016-09-28T07:24:52.273Z,1020.73
2016-09-28T07:25:17.850Z,1020.7
2016-09-28T07:25:43.415Z,1020.74
2016-09-28T07:26:08.998Z,1020.69
2016-09-28T07:26:34.583Z,1020.72
2016-09-28T07:27:00.143Z,1020.68
2016-09-28T07:27:25.708Z,1020.71
2016-09-28T07:27:51.280Z,1020.68
2016-09-28T07:28:16.833Z,1020.64
2016-09-28T07:28:42.400Z,1020.66
2016-09-28T07:29:08.036Z,1020.61
2016-09-28T07:29:33.605Z,1020.56
2016-09-28T07:29:59.170Z,1020.58
2016-09-28T07:30:24.708Z,1020.61
2016-09-28T07:30:50.274Z,1020.61
2016-09-28T07:31:15.835Z,1020.6
2016-09-28T07:31:41.389Z,1020.58
2016-09-28T07:32:06.960Z,1020.6
2016-09-28T07:32:32.636Z,1020.6
2016-09-28T07:32:58.201Z,1020.57
2016-09-28T07:33:23.770Z,1020.6
2016-09-28T07:33:49.343Z,1020.61
2016-09-28T07:34:14.907Z,1020.62
2016-09-28T07:34:40.437Z,1020.62
2016-09-28T07:35:05.993Z,1020.58
2016-09-28T07:35:31.547Z,1020.66
2016-09-28T07:35:57.080Z,1020.71
2016-09-28T07:36:23.272Z,1020.67
2016-09-28T07:36:48.825Z,1020.69
2016-09-28T07:37:14.377Z,1020.75
2016-09-28T07:37:39.915Z,1020.72
2016-09-28T07:38:05.462Z,1020.73
2016-09-28T07:38:31.068Z,1020.71
2016-09-28T07:38:56.593Z,1020.69
2016-09-28T07:39:22.262Z,1020.73
2016-09-28T07:39:47.847Z,1020.71
2016-09-28T07:40:13.384Z,1020.75
2016-09-28T07:40:38.932Z,1020.74
2016-09-28T07:41:04.629Z,1020.81
2016-09-28T07:41:30.184Z,1020.8
2016-09-28T07:41:55.723Z,1020.78
2016-09-28T07:42:21.275Z,1020.76
2016-09-28T07:42:46.805Z,1020.83
2016-09-28T07:43:12.411Z,1020.77
2016-09-28T07:43:37.956Z,1020.76
2016-09-28T07:44:03.496Z,1020.78
2016-09-28T07:44:29.046Z,1020.8
2016-09-28T07:44:54.602Z,1020.81
2016-09-28T07:45:20.168Z,1020.81
2016-09-28T07:45:45.718Z,1020.79
2016-09-28T07:48:25.410Z,1020.84
2016-09-28T07:48:59.284Z,1020.76
2016-09-28T07:49:24.891Z,1020.87
2016-09-28T07:49:50.456Z,1020.8
2016-09-28T07:50:16.029Z,1020.84
2016-09-28T07:50:41.723Z,1020.85
2016-09-28T07:51:07.295Z,1020.84
2016-09-28T07:51:32.864Z,1020.81
2016-09-28T07:51:58.606Z,1020.86
2016-09-28T07:52:24.175Z,1020.8
2016-09-28T07:52:49.734Z,1020.85
2016-09-28T07:53:15.313Z,1020.82
2016-09-28T07:53:41.115Z,1020.83
2016-09-28T07:54:06.833Z,1020.82
2016-09-28T07:54:32.409Z,1020.82
2016-09-28T07:54:58.032Z,1020.8
2016-09-28T07:55:23.603Z,1020.78
2016-09-28T07:55:49.193Z,1020.84
2016-09-28T07:56:14.765Z,1020.71
2016-09-28T07:56:40.330Z,1020.81
2016-09-28T07:57:05.915Z,1020.86
2016-09-28T07:57:31.472Z,1020.76
2016-09-28T07:58:44.909Z,1020.81
2016-09-28T07:59:10.654Z,1020.85
2016-09-28T07:59:36.221Z,1020.83
2016-09-28T08:00:01.772Z,1020.79
2016-09-28T08:00:27.364Z,1020.79
2016-09-28T08:00:53.039Z,1020.75
2016-09-28T08:01:18.615Z,1020.75
2016-09-28T08:01:44.169Z,1020.84
2016-09-28T08:02:09.732Z,1020.83
2016-09-28T08:02:35.282Z,1020.83
2016-09-28T08:03:00.850Z,1020.84
2016-09-28T08:03:26.428Z,1020.82
2016-09-28T08:03:51.979Z,1020.82
2016-09-28T08:04:17.530Z,1020.83
2016-09-28T08:04:43.080Z,1020.85
2016-09-28T08:05:08.651Z,1020.81
2016-09-28T08:05:34.223Z,1020.88
2016-09-28T08:05:59.773Z,1020.86
2016-09-28T08:06:25.392Z,1020.82
2016-09-28T08:06:50.940Z,1020.85
2016-09-28T08:07:16.500Z,1020.83
2016-09-28T08:08:35.149Z,1020.85
2016-09-28T08:09:00.728Z,1020.79
2016-09-28T08:09:26.282Z,1020.85
2016-09-28T08:09:51.821Z,1020.81
2016-09-28T08:10:17.364Z,1020.76
2016-09-28T08:10:42.923Z,1020.76
2016-09-28T08:11:08.486Z,1020.79
2016-09-28T08:11:34.047Z,1020.81
2016-09-28T08:11:59.629Z,1020.86
2016-09-28T08:12:25.297Z,1020.82
2016-09-28T08:12:50.844Z,1020.8
2016-09-28T08:13:16.404Z,1020.8
2016-09-28T08:13:42.110Z,1020.83
2016-09-28T08:14:07.677Z,1020.89
2016-09-28T08:14:33.242Z,1020.83
2016-09-28T08:14:58.820Z,1020.81
2016-09-28T08:15:24.380Z,1020.8
2016-09-28T08:16:38.153Z,1020.85
2016-09-28T08:17:03.732Z,1020.82
2016-09-28T08:17:29.303Z,1020.89
2016-09-28T08:17:54.867Z,1020.85
2016-09-28T08:18:20.504Z,1020.89
2016-09-28T08:18:46.090Z,1020.87
2016-09-28T08:19:11.720Z,1020.8
2016-09-28T08:19:37.274Z,1020.9
2016-09-28T08:20:02.835Z,1020.85
2016-09-28T08:20:28.398Z,1020.84
2016-09-28T08:20:53.950Z,1020.85
2016-09-28T08:21:19.525Z,1020.79
2016-09-28T08:21:45.106Z,1020.83
2016-09-28T08:22:10.684Z,1020.82
2016-09-28T08:22:36.240Z,1020.78
2016-09-28T08:23:01.814Z,1020.78
2016-09-28T08:23:27.490Z,1020.82
2016-09-28T08:23:53.048Z,1020.8
2016-09-28T08:24:18.616Z,1020.82
2016-09-28T08:24:44.173Z,1020.8
2016-09-28T08:25:09.761Z,1020.76
2016-09-28T08:25:35.432Z,1020.77
2016-09-28T08:26:00.891Z,1020.77
2016-09-28T08:26:26.477Z,1020.64
2016-09-28T08:27:39.967Z,1020.69
2016-09-28T08:28:05.525Z,1020.79
2016-09-28T08:28:31.074Z,1020.76
2016-09-28T08:28:56.650Z,1020.75
2016-09-28T08:29:22.308Z,1020.77
2016-09-28T08:29:47.864Z,1020.8
2016-09-28T08:30:13.436Z,1020.84
2016-09-28T08:30:39.047Z,1020.82
2016-09-28T08:31:04.714Z,1020.83
2016-09-28T08:31:30.264Z,1020.85
2016-09-28T08:31:55.884Z,1020.84
2016-09-28T08:32:21.508Z,1020.8
2016-09-28T08:32:47.080Z,1020.85
2016-09-28T08:33:12.656Z,1020.81
2016-09-28T08:33:38.266Z,1020.84
2016-09-28T08:34:03.830Z,1020.81
2016-09-28T08:34:29.411Z,1020.82
2016-09-28T08:34:54.987Z,1020.8
2016-09-28T08:35:20.558Z,1020.77
2016-09-28T08:35:46.123Z,1020.8
2016-09-28T08:36:11.682Z,1020.77
2016-09-28T08:36:37.238Z,1020.76
2016-09-28T08:37:02.807Z,1020.72
2016-09-28T08:37:28.351Z,1020.73
2016-09-28T08:37:53.923Z,1020.69
2016-09-28T08:38:19.493Z,1020.67
2016-09-28T08:38:45.067Z,1020.65
2016-09-28T08:39:43.163Z,1020.65
2016-09-28T08:40:08.721Z,1020.66
2016-09-28T08:40:34.291Z,1020.67
2016-09-28T08:40:59.859Z,1020.59
2016-09-28T08:41:25.423Z,1020.61
2016-09-28T08:41:51.126Z,1020.52
2016-09-28T08:42:16.694Z,1020.62
2016-09-28T08:42:42.249Z,1020.53
2016-09-28T08:43:07.858Z,1020.55
2016-09-28T08:43:33.407Z,1020.62
2016-09-28T08:43:58.982Z,1020.52
2016-09-28T08:44:24.539Z,1020.55
2016-09-28T08:44:50.184Z,1020.53
2016-09-28T08:45:15.770Z,1020.58
2016-09-28T08:45:41.353Z,1020.57
2016-09-28T08:46:06.909Z,1020.62
2016-09-28T08:46:32.460Z,1020.66
2016-09-28T08:46:58.029Z,1020.62
2016-09-28T08:47:23.610Z,1020.49
2016-09-28T08:47:49.207Z,1020.63
2016-09-28T08:48:14.764Z,1020.67
2016-09-28T08:48:40.335Z,1020.67
2016-09-28T08:49:05.894Z,1020.6
2016-09-28T08:49:31.460Z,1020.58
2016-09-28T08:49:57.013Z,1020.56
2016-09-28T08:50:22.571Z,1020.68
2016-09-28T08:50:48.224Z,1020.63
2016-09-28T08:51:13.808Z,1020.6
2016-09-28T08:51:39.375Z,1020.66
2016-09-28T08:52:04.945Z,1020.64